Yuba County Airport
KMYV : now visible

Airfield :











YOU CAN JOIN US ON...

 
LOGIN :

Register | Disclaimer

   EN    FR    IT 

 









Legend :    VFR   Marginal VFR   IFR   Intensive IFR   Very Intensive IFR
Visi :
Ceiling :
>= 8 km
>= 3000ft
5 to 8 km
1000 to 3000 ft
1500m to 5 km
500 to 1000 ft
800 to 1500m
200 to 500 ft
< 800m
< 200 ft
Symbols :   Thunderstorms  Fog  Heavy snow  Heavy precipitations  Wind > 20 kt






- Airport Elevation : 64 ft


KMYV - Yuba County

CURRENT METAR :
  • 260453Z AUTO 18006KT 10SM CLR 17/10 A2998 RMK AO2 SLP154 T01720100

EXPIRED METARs :
  • 260353Z AUTO 00000KT 10SM CLR 18/09 A2996 RMK AO2 SLP148 T01830094
  • 260253Z AUTO 15004KT 10SM CLR 21/09 A2995 RMK AO2 SLP144 T02110094 56004
  • 260153Z AUTO 14005KT 10SM CLR 23/09 A2995 RMK AO2 SLP144 T02280089
  • 260053Z AUTO 10SM CLR 23/09 A2995 RMK AO2 SLP145 T02330089

TAF N/A
KZOA FIR / North America



MET'MAP, your aeronautical weather chart ! - Copyright ORBIFLY December 2007 - Disclaimer

ORBIFLY MET'MAP TEAM :

Programming & Development : Alexandra Zaïnal
Original concept : Baudouin d'Aumeries
Technical & hardware support : Manuel Goepfert
Assistance : Marc-Olivier Méhu




SOURCES & CREDITS :

   NOAA       Earth
Advisory